Terminal Aerodrome Forecast
Issued by NWS

Home | Current Version | Previous Version | Text Only | Print | Product List | Glossary On
Versions: 1 2 3 4 5 6 7 8 9 10 11 12 13 14 15 16 17 18 19 20 21 22 23 24
277
FTUS45 KTFX 171159 AAA
TAFBZN
TAF AMD
KBZN 171159Z 1712/1818 VRB04KT 4SM BR FEW002 SCT140
      TEMPO 1712/1714 1/4SM FZFG OVC002
     FM171500 VRB03KT P6SM FEW020 SCT140
     FM172100 21006KT P6SM OVC100=

USA.gov is the U.S. government's official web portal to all federal, state and local government web resources and services.